createdAt,value
2022-12-08T05:04:04.082Z,6.07
2022-12-08T05:08:08.155Z,6.20
2022-12-08T05:12:10.846Z,6.13
2022-12-08T05:16:16.003Z,5.60
2022-12-08T05:20:20.626Z,5.88
2022-12-08T05:24:23.265Z,5.90
2022-12-08T05:28:41.257Z,5.47
2022-12-08T05:32:45.188Z,5.43
2022-12-08T05:36:49.241Z,5.80
2022-12-08T05:40:51.832Z,6.35
2022-12-08T05:44:54.549Z,6.37
2022-12-08T05:48:57.291Z,6.30
2022-12-08T05:53:01.341Z,6.53
2022-12-08T05:57:04.113Z,6.25
2022-12-08T06:01:06.933Z,6.85
2022-12-08T06:05:09.813Z,7.03
2022-12-08T06:09:13.712Z,7.45
2022-12-08T06:13:16.766Z,7.57
2022-12-08T06:17:19.459Z,7.47
2022-12-08T06:21:22.399Z,7.47
2022-12-08T06:25:26.654Z,7.40
2022-12-08T06:29:29.250Z,7.40
2022-12-08T06:33:32.008Z,7.80
2022-12-08T06:37:34.706Z,7.57
2022-12-08T06:41:58.819Z,7.60
2022-12-08T06:46:01.752Z,6.82
2022-12-08T06:50:06.207Z,7.47
2022-12-08T06:54:08.977Z,7.40
2022-12-08T06:58:13.989Z,7.60
2022-12-08T07:02:17.167Z,7.18
2022-12-08T07:06:23.310Z,6.82
2022-12-08T07:10:25.953Z,7.13
2022-12-08T07:14:30.222Z,7.30
2022-12-08T07:18:32.837Z,7.82
2022-12-08T07:22:35.475Z,7.70
2022-12-08T07:26:38.118Z,6.70
2022-12-08T07:30:42.142Z,6.30
2022-12-08T07:34:47.110Z,6.95
2022-12-08T07:38:50.826Z,6.82
2022-12-08T07:46:57.262Z,5.65
2022-12-08T07:51:03.746Z,6.53
2022-12-08T07:55:07.324Z,6.07
2022-12-08T08:03:13.845Z,6.22
2022-12-08T08:07:16.554Z,6.85
2022-12-08T08:11:21.556Z,7.50
2022-12-08T08:15:24.443Z,7.60
2022-12-08T08:19:28.511Z,7.60
2022-12-08T08:23:31.196Z,6.28
2022-12-08T08:27:33.818Z,7.07
2022-12-08T08:31:36.518Z,7.97
2022-12-08T08:35:40.803Z,6.97
2022-12-08T08:39:43.542Z,7.43
2022-12-08T08:43:46.124Z,6.80
2022-12-08T08:47:48.751Z,7.17
2022-12-08T08:51:52.709Z,7.17
2022-12-08T08:55:55.675Z,6.95
2022-12-08T08:59:58.273Z,6.50
2022-12-08T09:04:01.369Z,6.67
2022-12-08T09:08:05.729Z,6.95
2022-12-08T09:12:08.703Z,7.53
2022-12-08T09:16:12.932Z,6.88
2022-12-08T09:20:15.660Z,7.13
2022-12-08T09:24:19.643Z,6.60
2022-12-08T09:28:22.270Z,6.57
2022-12-08T09:32:24.906Z,5.90
2022-12-08T09:36:27.693Z,5.00
2022-12-08T09:40:36.889Z,5.18
2022-12-08T09:44:49.462Z,5.32
2022-12-08T09:48:56.001Z,4.68
2022-12-08T09:53:04.285Z,5.13
2022-12-08T09:57:16.136Z,5.05
2022-12-08T10:01:20.466Z,4.88
2022-12-08T10:05:25.710Z,4.68
2022-12-08T10:09:40.954Z,4.32
2022-12-08T10:13:59.766Z,4.25
2022-12-08T10:18:04.933Z,4.63
2022-12-08T10:22:19.504Z,5.30
2022-12-08T10:26:23.404Z,4.70
2022-12-08T10:30:27.699Z,4.38
2022-12-08T10:34:30.358Z,5.18
2022-12-08T10:38:34.234Z,4.50
2022-12-08T10:42:39.899Z,4.40
2022-12-08T10:46:44.107Z,4.63
2022-12-08T10:50:49.093Z,4.75
2022-12-08T10:54:55.914Z,5.05
2022-12-08T10:59:16.028Z,4.70
2022-12-08T11:03:25.900Z,5.20
2022-12-08T11:07:29.097Z,5.05
2022-12-08T11:11:40.254Z,5.25
2022-12-08T11:15:47.024Z,4.55
2022-12-08T11:19:58.739Z,4.15
2022-12-08T11:24:23.188Z,4.47
2022-12-08T11:28:26.688Z,4.13
2022-12-08T11:32:29.272Z,4.03
2022-12-08T11:36:36.108Z,4.03
2022-12-08T11:40:41.174Z,3.55
2022-12-08T11:44:50.281Z,3.70
2022-12-08T11:48:55.696Z,3.17
2022-12-08T11:53:02.375Z,3.70
2022-12-08T11:57:10.145Z,2.50
2022-12-08T12:01:20.982Z,3.22
2022-12-08T12:06:03.289Z,2.80
2022-12-08T12:10:14.494Z,2.50
2022-12-08T12:14:31.417Z,2.85
2022-12-08T12:18:40.205Z,2.70
2022-12-08T12:22:45.738Z,3.00
2022-12-08T12:26:58.560Z,2.63
2022-12-08T12:31:06.093Z,2.80
2022-12-08T12:35:18.061Z,2.67
2022-12-08T12:39:24.570Z,2.35
2022-12-08T12:43:35.037Z,2.40
2022-12-08T12:47:54.288Z,2.33
2022-12-08T12:51:58.758Z,2.10
2022-12-08T12:56:04.136Z,1.60
2022-12-08T13:00:20.406Z,1.88
2022-12-08T13:04:32.011Z,1.80
2022-12-08T13:08:34.874Z,1.70
2022-12-08T13:12:37.836Z,1.60
2022-12-08T13:16:41.923Z,1.77
2022-12-08T13:20:51.608Z,1.80
2022-12-08T13:24:54.237Z,1.60
2022-12-08T13:29:22.417Z,1.70
2022-12-08T13:33:30.259Z,1.63
2022-12-08T13:37:45.739Z,1.75
2022-12-08T13:42:01.520Z,1.83
2022-12-08T13:56:30.727Z,1.83
2022-12-08T13:59:30.449Z,1.90
2022-12-08T14:03:45.116Z,2.00
2022-12-08T14:08:02.234Z,2.13
2022-12-08T14:12:09.929Z,2.05
2022-12-08T14:16:27.575Z,2.00
2022-12-08T14:20:33.829Z,2.53
2022-12-08T14:24:48.242Z,2.70
2022-12-08T14:28:51.573Z,2.20
2022-12-08T14:32:58.303Z,2.10
2022-12-08T14:37:01.008Z,2.60
2022-12-08T14:41:07.868Z,2.40
2022-12-08T14:45:14.026Z,2.20
2022-12-08T14:49:35.602Z,2.20
2022-12-08T14:53:40.982Z,2.80
2022-12-08T14:57:49.121Z,2.17
2022-12-08T15:01:54.429Z,2.67
2022-12-08T15:05:59.681Z,2.55
2022-12-08T15:10:21.097Z,3.22
2022-12-08T15:14:33.458Z,2.97
2022-12-08T15:18:38.424Z,2.97
2022-12-08T15:22:41.090Z,3.97
2022-12-08T15:26:46.772Z,3.93
2022-12-08T15:30:51.386Z,4.68
2022-12-08T15:34:54.049Z,5.55
2022-12-08T15:38:56.812Z,4.97
2022-12-08T15:42:59.436Z,4.90
2022-12-08T15:47:03.661Z,4.07
2022-12-08T15:51:06.305Z,4.30
2022-12-08T15:55:13.348Z,4.70
2022-12-08T15:59:19.083Z,4.78
2022-12-08T16:04:13.836Z,4.20
2022-12-08T16:07:53.126Z,3.88
2022-12-08T16:12:18.115Z,4.00
2022-12-08T16:16:27.360Z,3.22
2022-12-08T16:20:58.955Z,3.22
2022-12-08T16:24:54.384Z,3.67
2022-12-08T16:28:57.580Z,4.13
2022-12-08T16:33:00.269Z,3.80
2022-12-08T16:37:04.271Z,3.77
2022-12-08T16:41:24.532Z,5.55
2022-12-08T16:45:29.734Z,5.63
2022-12-08T16:49:32.462Z,4.82
2022-12-08T16:53:36.462Z,4.67
2022-12-08T16:57:39.404Z,4.88
2022-12-08T17:01:42.101Z,5.28
2022-12-08T17:05:44.901Z,6.07
2022-12-08T17:09:48.859Z,5.65
2022-12-08T17:13:51.493Z,4.47
2022-12-08T17:17:54.954Z,5.13
2022-12-08T17:26:02.083Z,5.60
2022-12-08T17:30:06.398Z,5.00
2022-12-08T17:34:10.290Z,5.70
2022-12-08T17:38:12.985Z,4.78
2022-12-08T17:42:16.925Z,5.43
2022-12-08T17:46:20.599Z,4.88
2022-12-08T17:50:23.268Z,5.40
2022-12-08T17:54:27.247Z,5.17
2022-12-08T17:58:32.181Z,5.40
2022-12-08T18:02:37.726Z,4.72
2022-12-08T18:06:40.829Z,5.30
2022-12-08T18:10:43.615Z,5.55
2022-12-08T18:14:48.195Z,7.05
2022-12-08T18:18:51.203Z,8.80
2022-12-08T18:22:53.835Z,8.25
2022-12-08T18:26:57.804Z,7.67
2022-12-08T18:31:01.910Z,6.20
2022-12-08T18:35:04.925Z,6.75
2022-12-08T18:39:10.945Z,7.07
2022-12-08T18:43:13.777Z,7.53
2022-12-08T18:47:17.847Z,6.63
2022-12-08T18:51:23.240Z,5.97
2022-12-08T18:55:25.956Z,6.45
2022-12-08T18:59:28.640Z,6.30
2022-12-08T19:03:32.595Z,6.40
2022-12-08T19:07:36.747Z,5.88
2022-12-08T19:11:39.766Z,6.03
2022-12-08T19:15:42.538Z,5.97
2022-12-08T19:19:46.731Z,6.55
2022-12-08T19:23:53.613Z,6.78
2022-12-08T19:27:56.717Z,7.38
2022-12-08T19:32:00.311Z,6.82
2022-12-08T19:40:32.372Z,5.68
2022-12-08T19:44:52.643Z,5.82
2022-12-08T19:48:55.469Z,5.32
2022-12-08T19:52:59.509Z,5.88
2022-12-08T19:57:02.569Z,5.32
2022-12-08T20:01:05.228Z,6.20
2022-12-08T20:05:09.651Z,7.00
2022-12-08T20:09:14.114Z,7.18
2022-12-08T20:13:34.270Z,6.85
2022-12-08T20:17:36.927Z,6.88
2022-12-08T20:21:40.360Z,7.00
2022-12-08T20:29:48.038Z,8.98
2022-12-08T20:33:50.860Z,10.73
2022-12-08T20:37:53.552Z,9.63
2022-12-08T20:41:58.636Z,9.37
2022-12-08T20:46:01.321Z,8.13
2022-12-08T20:50:05.062Z,8.57
2022-12-08T20:54:09.632Z,6.60
2022-12-08T20:58:14.240Z,6.72
2022-12-08T21:02:17.590Z,8.45
2022-12-08T21:06:23.318Z,7.28
2022-12-08T21:10:26.770Z,6.75
2022-12-08T21:18:39.193Z,6.15
2022-12-08T21:22:42.451Z,5.82
2022-12-08T21:26:45.320Z,6.03
2022-12-08T21:30:49.687Z,6.60
2022-12-08T21:34:52.415Z,5.93
2022-12-08T21:38:58.253Z,6.57
2022-12-08T21:43:02.095Z,6.32
2022-12-08T21:47:06.580Z,5.95
2022-12-08T21:51:09.920Z,6.45
2022-12-08T21:55:13.826Z,6.32
2022-12-08T21:59:16.715Z,6.80
